createdAt,value
2023-05-15T00:01:24.637Z,99789.50
2023-05-15T00:03:52.416Z,99790.56
2023-05-15T00:06:20.032Z,99789.16
2023-05-15T00:08:47.318Z,99786.66
2023-05-15T00:11:14.805Z,99801.25
2023-05-15T00:13:42.009Z,99804.00
2023-05-15T00:16:09.608Z,99802.78
2023-05-15T00:18:37.093Z,99807.19
2023-05-15T00:21:04.409Z,99810.63
2023-05-15T00:23:31.638Z,99819.69
2023-05-15T00:25:59.134Z,99813.78
2023-05-15T00:28:26.436Z,99815.91
2023-05-15T00:30:55.700Z,99817.66
2023-05-15T00:33:23.328Z,99818.59
2023-05-15T00:35:50.984Z,99810.63
2023-05-15T00:38:18.171Z,99798.19
2023-05-15T00:40:46.284Z,99800.66
2023-05-15T00:43:13.982Z,99801.25
2023-05-15T00:45:42.416Z,99806.50
2023-05-15T00:48:10.647Z,99801.41
2023-05-15T00:50:41.399Z,99794.53
2023-05-15T00:53:09.364Z,99792.63
2023-05-15T00:55:38.450Z,99790.22
2023-05-15T00:58:06.013Z,99787.72
2023-05-15T01:00:33.638Z,99780.72
2023-05-15T01:03:01.876Z,99776.69
2023-05-15T01:05:29.371Z,99768.28
2023-05-15T01:08:17.913Z,99759.97
2023-05-15T01:10:45.814Z,99761.47
2023-05-15T01:13:14.293Z,99760.62
2023-05-15T01:15:42.452Z,99758.97
2023-05-15T01:18:11.463Z,99762.97
2023-05-15T01:20:53.129Z,99755.16
2023-05-15T01:24:02.637Z,99756.41
2023-05-15T01:27:03.631Z,99754.25
2023-05-15T01:29:36.897Z,99762.78
2023-05-15T01:32:12.270Z,99765.25
2023-05-15T01:34:55.892Z,99767.53
2023-05-15T01:37:25.605Z,99749.25
2023-05-15T01:40:00.354Z,99739.75
2023-05-15T01:42:31.176Z,99729.78
2023-05-15T01:45:03.276Z,99733.59
2023-05-15T01:47:39.859Z,99742.63
2023-05-15T01:50:10.548Z,99750.37
2023-05-15T01:52:40.918Z,99745.75
2023-05-15T01:55:08.992Z,99737.69
2023-05-15T01:57:36.427Z,99743.81
2023-05-15T02:00:04.188Z,99756.87
2023-05-15T02:02:42.332Z,99757.37
2023-05-15T02:05:11.180Z,99759.75
2023-05-15T02:07:42.608Z,99767.09
2023-05-15T02:10:11.870Z,99757.22
2023-05-15T02:12:40.961Z,99768.00
2023-05-15T02:15:11.737Z,99775.16
2023-05-15T02:17:39.016Z,99788.13
2023-05-15T02:20:07.708Z,99795.37
2023-05-15T02:22:37.618Z,99801.28
2023-05-15T02:25:05.171Z,99804.84
2023-05-15T02:28:04.910Z,99807.84
2023-05-15T02:30:46.308Z,99801.28
2023-05-15T02:33:36.076Z,99784.44
2023-05-15T02:36:07.389Z,99793.31
2023-05-15T02:38:53.714Z,99788.44
2023-05-15T02:41:22.085Z,99778.13
2023-05-15T02:43:50.818Z,99776.31
2023-05-15T02:46:19.212Z,99778.44
2023-05-15T02:48:48.121Z,99771.09
2023-05-15T02:51:15.276Z,99772.31
2023-05-15T02:53:42.974Z,99769.12
2023-05-15T02:56:10.622Z,99763.19
2023-05-15T02:58:38.992Z,99769.94
2023-05-15T03:01:06.935Z,99767.13
2023-05-15T03:03:34.514Z,99765.47
2023-05-15T03:06:01.694Z,99761.53
2023-05-15T03:08:29.084Z,99770.31
2023-05-15T03:10:56.595Z,99753.91
2023-05-15T03:13:23.825Z,99749.03
2023-05-15T03:15:52.775Z,99734.53
2023-05-15T03:18:20.462Z,99723.88
2023-05-15T03:20:48.939Z,99719.37
2023-05-15T03:23:16.127Z,99713.28
2023-05-15T03:25:43.581Z,99711.84
2023-05-15T03:28:11.582Z,99707.72
2023-05-15T03:30:38.772Z,99709.03
2023-05-15T03:33:06.493Z,99705.13
2023-05-15T03:35:33.768Z,99704.66
2023-05-15T03:38:01.090Z,99706.94
2023-05-15T03:40:28.660Z,99707.56
2023-05-15T03:42:55.824Z,99708.03
2023-05-15T03:45:23.372Z,99706.94
2023-05-15T03:47:51.275Z,99711.13
2023-05-15T03:50:18.489Z,99708.31
2023-05-15T03:52:45.704Z,99697.88
2023-05-15T03:55:13.219Z,99695.94
2023-05-15T03:57:41.645Z,99696.44
2023-05-15T04:00:11.122Z,99695.63
2023-05-15T04:02:40.258Z,99686.97
2023-05-15T04:05:08.622Z,99690.13
2023-05-15T04:07:36.795Z,99676.38
2023-05-15T04:10:04.251Z,99672.38
2023-05-15T04:12:34.779Z,99666.06
2023-05-15T04:15:13.894Z,99670.59
2023-05-15T04:17:42.103Z,99674.28
2023-05-15T04:20:11.103Z,99676.41
2023-05-15T04:22:38.273Z,99671.63
2023-05-15T04:25:06.210Z,99680.75
2023-05-15T04:27:33.527Z,99693.81
2023-05-15T04:30:01.734Z,99703.19
2023-05-15T04:32:30.623Z,99699.66
2023-05-15T04:34:57.965Z,99702.69
2023-05-15T04:37:25.127Z,99709.88
2023-05-15T04:39:52.670Z,99715.06
2023-05-15T04:42:20.011Z,99716.91
2023-05-15T04:44:47.231Z,99709.59
2023-05-15T04:47:14.716Z,99712.72
2023-05-15T04:49:42.141Z,99738.44
2023-05-15T04:52:09.352Z,99749.53
2023-05-15T04:54:36.876Z,99752.81
2023-05-15T04:57:04.216Z,99749.53
2023-05-15T04:59:31.391Z,99744.69
2023-05-15T05:01:59.709Z,99746.09
2023-05-15T05:04:26.939Z,99756.13
2023-05-15T05:06:54.132Z,99758.03
2023-05-15T05:09:21.650Z,99752.13
2023-05-15T05:11:48.763Z,99754.75
2023-05-15T05:14:16.016Z,99754.06
2023-05-15T05:16:46.305Z,99760.94
2023-05-15T05:19:13.722Z,99773.41
2023-05-15T05:21:40.986Z,99777.34
2023-05-15T05:24:08.428Z,99769.19
2023-05-15T05:26:35.635Z,99760.62
2023-05-15T05:29:02.904Z,99759.47
2023-05-15T05:31:30.377Z,99757.69
2023-05-15T05:33:57.591Z,99745.50
2023-05-15T05:36:24.765Z,99753.34
2023-05-15T05:38:52.274Z,99749.56
2023-05-15T05:41:19.460Z,99742.19
2023-05-15T05:43:46.589Z,99749.06
2023-05-15T05:46:14.041Z,99763.28
2023-05-15T05:48:41.248Z,99761.81
2023-05-15T05:51:08.392Z,99768.06
2023-05-15T05:53:37.500Z,99785.97
2023-05-15T05:56:05.589Z,99790.66
2023-05-15T05:58:32.844Z,99781.13
2023-05-15T06:01:00.879Z,99772.25
2023-05-15T06:03:28.661Z,99760.94
2023-05-15T06:05:55.933Z,99764.94
2023-05-15T06:08:23.193Z,99771.09
2023-05-15T06:10:50.736Z,99779.00
2023-05-15T06:13:17.966Z,99777.84
2023-05-15T06:15:46.411Z,99776.50
2023-05-15T06:18:14.198Z,99785.06
2023-05-15T06:20:42.888Z,99788.69
2023-05-15T06:23:10.119Z,99795.34
2023-05-15T06:25:37.691Z,99802.13
2023-05-15T06:28:05.042Z,99793.53
2023-05-15T06:30:32.356Z,99793.16
2023-05-15T06:33:00.184Z,99793.06
2023-05-15T06:35:27.536Z,99790.66
2023-05-15T06:37:56.507Z,99774.53
2023-05-15T06:40:25.435Z,99764.63
2023-05-15T06:42:52.788Z,99768.44
2023-05-15T06:45:20.000Z,99762.16
2023-05-15T06:47:47.467Z,99759.84
2023-05-15T06:50:14.679Z,99758.84
2023-05-15T06:52:41.875Z,99756.81
2023-05-15T06:55:09.483Z,99769.22
2023-05-15T06:57:36.644Z,99758.31
2023-05-15T07:00:05.386Z,99760.22
2023-05-15T07:02:32.879Z,99774.22
2023-05-15T07:05:00.076Z,99777.53
2023-05-15T07:07:27.296Z,99786.56
2023-05-15T07:09:57.796Z,99783.31
2023-05-15T07:12:24.980Z,99783.94
2023-05-15T07:14:52.047Z,99788.88
2023-05-15T07:17:19.565Z,99790.28
2023-05-15T07:19:46.719Z,99808.63
2023-05-15T07:22:13.945Z,99813.97
2023-05-15T07:24:41.476Z,99815.91
2023-05-15T07:27:08.623Z,99826.37
2023-05-15T07:29:35.791Z,99825.47
2023-05-15T07:32:03.437Z,99815.84
2023-05-15T07:34:30.792Z,99818.19
2023-05-15T07:36:58.017Z,99795.69
2023-05-15T07:39:25.552Z,99789.75
2023-05-15T07:41:52.760Z,99785.47
2023-05-15T07:44:19.921Z,99792.38
2023-05-15T07:46:47.863Z,99781.75
2023-05-15T07:49:15.068Z,99775.69
2023-05-15T07:51:42.836Z,99772.91
2023-05-15T07:54:10.400Z,99780.37
2023-05-15T07:56:37.806Z,99789.19
2023-05-15T07:59:05.050Z,99800.91
2023-05-15T08:01:33.024Z,99818.72
2023-05-15T08:04:00.692Z,99822.69
2023-05-15T08:06:27.972Z,99821.47
2023-05-15T08:08:55.236Z,99816.94
2023-05-15T08:11:22.728Z,99813.78
2023-05-15T08:13:49.978Z,99809.34
2023-05-15T08:16:17.148Z,99814.88
2023-05-15T08:18:44.782Z,99810.75
2023-05-15T08:21:11.972Z,99817.66
2023-05-15T08:23:39.113Z,99828.25
2023-05-15T08:26:06.581Z,99816.28
2023-05-15T08:28:33.772Z,99822.22
2023-05-15T08:31:00.992Z,99823.44
2023-05-15T08:33:28.485Z,99827.84
2023-05-15T08:35:55.708Z,99809.06
2023-05-15T08:38:23.856Z,99809.56
2023-05-15T08:40:53.200Z,99812.63
2023-05-15T08:43:21.241Z,99799.88
2023-05-15T08:45:49.343Z,99796.84
2023-05-15T08:48:19.528Z,99801.38
2023-05-15T08:50:47.238Z,99805.06
2023-05-15T08:53:14.814Z,99801.50
2023-05-15T08:55:42.360Z,99786.28
2023-05-15T08:58:10.047Z,99797.06
2023-05-15T09:00:37.678Z,99795.78
2023-05-15T09:03:05.527Z,99805.06
2023-05-15T09:05:32.816Z,99804.91
2023-05-15T09:08:04.164Z,99808.34
2023-05-15T09:10:31.942Z,99808.50
2023-05-15T09:12:59.640Z,99813.84
2023-05-15T09:15:28.088Z,99818.34
2023-05-15T09:17:56.336Z,99813.47
2023-05-15T09:20:30.845Z,99818.59
2023-05-15T09:22:59.548Z,99824.94
2023-05-15T09:25:40.459Z,99832.09
2023-05-15T09:28:10.602Z,99839.59
2023-05-15T09:30:38.800Z,99843.16
2023-05-15T09:33:06.123Z,99853.69
2023-05-15T09:35:40.973Z,99856.50
2023-05-15T09:38:10.539Z,99853.47
2023-05-15T09:40:39.059Z,99854.84
2023-05-15T09:43:06.262Z,99857.03
2023-05-15T09:45:33.535Z,99856.59
2023-05-15T09:48:04.948Z,99855.09
2023-05-15T09:50:34.550Z,99857.31
2023-05-15T09:53:02.200Z,99853.41
2023-05-15T09:55:34.811Z,99857.09
2023-05-15T09:58:15.208Z,99854.06
2023-05-15T10:00:48.568Z,99854.47
2023-05-15T10:03:19.796Z,99861.38
2023-05-15T10:05:47.181Z,99854.78
2023-05-15T10:08:15.864Z,99860.53
2023-05-15T10:10:43.880Z,99854.97
2023-05-15T10:13:11.845Z,99855.47
2023-05-15T10:15:39.837Z,99858.22
2023-05-15T10:18:07.991Z,99853.09
2023-05-15T10:20:37.991Z,99850.13
2023-05-15T10:23:06.553Z,99853.94
2023-05-15T10:25:34.157Z,99855.75
2023-05-15T10:28:01.798Z,99855.72
2023-05-15T10:30:29.384Z,99856.37
2023-05-15T10:32:57.586Z,99850.53
2023-05-15T10:35:28.072Z,99857.97
2023-05-15T10:37:55.285Z,99857.44
2023-05-15T10:40:23.905Z,99870.00
2023-05-15T10:42:51.339Z,99872.25
2023-05-15T10:45:18.529Z,99865.50
2023-05-15T10:47:46.210Z,99866.31
2023-05-15T10:50:14.382Z,99862.72
2023-05-15T10:52:41.951Z,99868.66
2023-05-15T10:55:17.063Z,99870.41
2023-05-15T10:57:47.609Z,99860.81
2023-05-15T11:00:25.197Z,99857.00
2023-05-15T11:02:55.394Z,99855.78
2023-05-15T11:05:23.877Z,99850.81
2023-05-15T11:08:16.003Z,99854.63
2023-05-15T11:10:43.483Z,99852.22
2023-05-15T11:13:12.022Z,99858.53
2023-05-15T11:15:46.750Z,99858.69
2023-05-15T11:18:14.683Z,99851.00
2023-05-15T11:20:54.823Z,99841.63
2023-05-15T11:23:22.929Z,99847.09
2023-05-15T11:25:57.453Z,99839.81
2023-05-15T11:28:25.974Z,99843.34
2023-05-15T11:30:55.786Z,99843.56
2023-05-15T11:33:22.891Z,99839.88
2023-05-15T11:35:58.524Z,99848.00
2023-05-15T11:38:26.219Z,99844.03
2023-05-15T11:41:03.465Z,99842.38
2023-05-15T11:43:31.624Z,99839.94
2023-05-15T11:46:05.747Z,99833.50
2023-05-15T11:48:33.600Z,99835.66
2023-05-15T11:51:02.098Z,99828.69
2023-05-15T11:53:33.579Z,99829.75
2023-05-15T11:56:01.200Z,99819.28
2023-05-15T11:58:28.315Z,99825.13
2023-05-15T12:00:55.477Z,99833.25
2023-05-15T12:03:27.524Z,99835.28
2023-05-15T12:05:59.070Z,99828.69
2023-05-15T12:08:35.278Z,99838.91
2023-05-15T12:11:03.014Z,99847.06
2023-05-15T12:13:31.997Z,99840.69
2023-05-15T12:16:00.323Z,99843.97
2023-05-15T12:18:27.635Z,99841.63
2023-05-15T12:20:55.470Z,99852.44
2023-05-15T12:23:24.093Z,99844.84
2023-05-15T12:25:55.069Z,99850.41
2023-05-15T12:28:22.848Z,99854.22
2023-05-15T12:30:50.035Z,99861.44
2023-05-15T12:33:17.496Z,99853.25
2023-05-15T12:35:57.427Z,99852.00
2023-05-15T12:38:27.288Z,99853.19
2023-05-15T12:40:54.877Z,99856.06
2023-05-15T12:43:24.926Z,99853.81
2023-05-15T12:45:56.028Z,99856.34
2023-05-15T12:48:28.112Z,99856.44
2023-05-15T12:50:55.229Z,99857.31
2023-05-15T12:53:22.326Z,99846.50
2023-05-15T12:55:51.083Z,99836.06
2023-05-15T12:58:19.167Z,99839.50
2023-05-15T13:00:47.878Z,99837.78
2023-05-15T13:03:15.377Z,99830.41
2023-05-15T13:05:44.337Z,99820.06
2023-05-15T13:08:16.805Z,99820.72
2023-05-15T13:10:45.135Z,99831.28
2023-05-15T13:13:12.583Z,99829.53
2023-05-15T13:15:42.686Z,99826.66
2023-05-15T13:18:10.766Z,99826.59
2023-05-15T13:20:46.469Z,99818.09
2023-05-15T13:23:17.956Z,99816.47
2023-05-15T13:25:45.604Z,99809.81
2023-05-15T13:28:13.001Z,99804.06
2023-05-15T13:30:41.797Z,99808.09
2023-05-15T13:33:09.857Z,99806.94
2023-05-15T13:35:37.821Z,99809.97
2023-05-15T13:38:05.438Z,99808.59
2023-05-15T13:40:33.461Z,99810.37
2023-05-15T13:43:00.707Z,99798.38
2023-05-15T13:45:28.590Z,99790.56
2023-05-15T13:47:56.089Z,99794.06
2023-05-15T13:50:23.673Z,99791.09
2023-05-15T13:52:51.267Z,99795.56
2023-05-15T13:55:20.287Z,99797.53
2023-05-15T13:57:48.756Z,99806.94
2023-05-15T14:00:17.366Z,99805.97
2023-05-15T14:02:45.309Z,99814.06
2023-05-15T14:05:14.254Z,99805.47
2023-05-15T14:07:41.934Z,99800.53
2023-05-15T14:10:09.989Z,99809.38
2023-05-15T14:12:37.768Z,99806.69
2023-05-15T14:15:05.263Z,99812.81
2023-05-15T14:17:32.921Z,99804.66
2023-05-15T14:20:00.125Z,99820.09
2023-05-15T14:22:27.331Z,99810.00
2023-05-15T14:24:54.816Z,99818.06
2023-05-15T14:27:22.004Z,99818.44
2023-05-15T14:29:49.585Z,99818.44
2023-05-15T14:32:17.438Z,99822.03
2023-05-15T14:34:44.639Z,99826.28
2023-05-15T14:37:11.975Z,99834.97
2023-05-15T14:39:39.470Z,99824.75
2023-05-15T14:42:07.096Z,99826.41
2023-05-15T14:44:34.879Z,99830.63
2023-05-15T14:47:12.864Z,99829.44
2023-05-15T14:49:40.618Z,99826.81
2023-05-15T14:52:09.502Z,99825.31
2023-05-15T14:54:37.826Z,99830.72
2023-05-15T14:57:05.334Z,99829.28
2023-05-15T14:59:32.727Z,99829.50
2023-05-15T15:01:59.953Z,99833.94
2023-05-15T15:04:29.064Z,99828.38
2023-05-15T15:06:57.183Z,99838.38
2023-05-15T15:09:25.549Z,99842.00
2023-05-15T15:11:53.707Z,99843.84
2023-05-15T15:14:21.389Z,99842.41
2023-05-15T15:16:48.677Z,99841.59
2023-05-15T15:19:18.986Z,99849.53
2023-05-15T15:21:47.523Z,99851.50
2023-05-15T15:24:15.005Z,99851.59
2023-05-15T15:26:42.361Z,99858.28
2023-05-15T15:29:09.904Z,99859.84
2023-05-15T15:31:37.139Z,99867.59
2023-05-15T15:34:05.825Z,99865.31
2023-05-15T15:36:33.382Z,99862.19
2023-05-15T15:39:00.469Z,99863.63
2023-05-15T15:41:31.332Z,99868.75
2023-05-15T15:43:58.845Z,99867.75
2023-05-15T15:46:26.177Z,99871.87
2023-05-15T15:48:53.265Z,99876.19
2023-05-15T15:51:21.004Z,99870.00
2023-05-15T15:53:48.096Z,99869.59
2023-05-15T15:56:15.252Z,99872.56
2023-05-15T15:58:42.713Z,99869.44
2023-05-15T16:01:10.128Z,99875.91
2023-05-15T16:03:37.533Z,99871.19
2023-05-15T16:06:04.919Z,99863.78
2023-05-15T16:08:32.199Z,99863.28
2023-05-15T16:10:59.604Z,99868.16
2023-05-15T16:13:26.818Z,99862.91
2023-05-15T16:15:53.898Z,99864.47
2023-05-15T16:18:21.448Z,99870.50
2023-05-15T16:20:48.639Z,99873.63
2023-05-15T16:23:16.282Z,99878.91
2023-05-15T16:25:44.560Z,99879.50
2023-05-15T16:28:11.957Z,99878.81
2023-05-15T16:30:48.112Z,99882.44
2023-05-15T16:33:18.156Z,99883.69
2023-05-15T16:35:45.773Z,99890.84
2023-05-15T16:38:13.368Z,99879.03
2023-05-15T16:40:41.040Z,99881.81
2023-05-15T16:43:08.126Z,99878.16
2023-05-15T16:45:35.261Z,99884.78
2023-05-15T16:48:02.972Z,99886.16
2023-05-15T16:50:35.874Z,99880.22
2023-05-15T16:53:04.380Z,99877.22
2023-05-15T16:55:31.981Z,99877.66
2023-05-15T16:57:59.115Z,99876.19
2023-05-15T17:00:26.907Z,99877.16
2023-05-15T17:02:54.768Z,99891.88
2023-05-15T17:05:21.967Z,99895.03
2023-05-15T17:07:49.487Z,99907.19
2023-05-15T17:10:16.724Z,99908.72
2023-05-15T17:12:44.140Z,99906.22
2023-05-15T17:15:11.792Z,99916.34
2023-05-15T17:17:38.916Z,99915.84
2023-05-15T17:20:07.036Z,99923.28
2023-05-15T17:22:34.546Z,99927.88
2023-05-15T17:25:01.704Z,99932.31
2023-05-15T17:27:28.900Z,99930.50
2023-05-15T17:29:56.569Z,99934.78
2023-05-15T17:32:23.874Z,99931.75
2023-05-15T17:34:51.477Z,99942.41
2023-05-15T17:37:18.865Z,99940.75
2023-05-15T17:39:46.028Z,99945.19
2023-05-15T17:42:13.161Z,99940.66
2023-05-15T17:44:40.621Z,99931.94
2023-05-15T17:47:09.740Z,99939.69
2023-05-15T17:49:37.734Z,99935.84
2023-05-15T17:52:05.897Z,99937.06
2023-05-15T17:54:33.007Z,99931.97
2023-05-15T17:57:00.304Z,99931.41
2023-05-15T17:59:27.852Z,99928.66
2023-05-15T18:01:55.126Z,99920.09
2023-05-15T18:04:25.311Z,99918.47
2023-05-15T18:06:52.506Z,99933.63
2023-05-15T18:09:23.152Z,99935.00
2023-05-15T18:11:51.723Z,99932.63
2023-05-15T18:14:18.918Z,99929.16
2023-05-15T18:16:46.000Z,99930.50
2023-05-15T18:19:13.521Z,99938.50
2023-05-15T18:21:40.682Z,99933.19
2023-05-15T18:24:07.796Z,99951.41
2023-05-15T18:26:35.240Z,99951.31
2023-05-15T18:29:02.417Z,99944.75
2023-05-15T18:31:29.656Z,99956.84
2023-05-15T18:33:57.145Z,99962.50
2023-05-15T18:36:24.277Z,99964.81
2023-05-15T18:38:51.319Z,99968.22
2023-05-15T18:41:18.717Z,99973.59
2023-05-15T18:43:46.380Z,99974.09
2023-05-15T18:46:13.674Z,99980.22
2023-05-15T18:48:41.274Z,99985.41
2023-05-15T18:51:09.617Z,99990.53
2023-05-15T18:53:36.705Z,99994.37
2023-05-15T18:56:04.452Z,99987.72
2023-05-15T18:58:31.535Z,99987.72
2023-05-15T19:00:58.754Z,99985.87
2023-05-15T19:03:26.356Z,99993.72
2023-05-15T19:05:53.472Z,99994.34
2023-05-15T19:08:20.679Z,99998.28
2023-05-15T19:10:48.724Z,99991.88
2023-05-15T19:13:15.808Z,99995.22
2023-05-15T19:15:51.387Z,99992.94
2023-05-15T19:18:19.040Z,99988.53
2023-05-15T19:20:56.626Z,99994.59
2023-05-15T19:23:24.568Z,100002.84
2023-05-15T19:25:51.722Z,100006.41
2023-05-15T19:28:18.819Z,100014.00
2023-05-15T19:30:46.382Z,100001.88
2023-05-15T19:33:15.648Z,99999.75
2023-05-15T19:35:42.759Z,100000.59
2023-05-15T19:38:10.159Z,99999.50
2023-05-15T19:40:37.285Z,99997.62
2023-05-15T19:43:04.478Z,99998.66
2023-05-15T19:45:31.834Z,99991.91
2023-05-15T19:48:00.314Z,99994.19
2023-05-15T19:50:27.730Z,99998.31
2023-05-15T19:52:55.908Z,99995.63
2023-05-15T19:55:23.124Z,99995.97
2023-05-15T19:57:51.545Z,99999.84
2023-05-15T20:00:19.242Z,99993.19
2023-05-15T20:02:47.496Z,100001.03
2023-05-15T20:05:15.354Z,100009.59
2023-05-15T20:07:43.151Z,100000.59
2023-05-15T20:10:10.781Z,100004.50
2023-05-15T20:12:37.933Z,100005.00
2023-05-15T20:15:06.877Z,100014.84
2023-05-15T20:17:34.416Z,100004.97
2023-05-15T20:20:02.270Z,100015.91
2023-05-15T20:22:29.435Z,100030.66
2023-05-15T20:24:56.897Z,100024.72
2023-05-15T20:27:23.983Z,100029.22
2023-05-15T20:29:51.091Z,100032.81
2023-05-15T20:32:18.669Z,100038.03
2023-05-15T20:34:47.555Z,100038.50
2023-05-15T20:37:14.635Z,100038.13
2023-05-15T20:39:42.534Z,100038.38
2023-05-15T20:42:09.593Z,100041.97
2023-05-15T20:44:39.146Z,100041.59
2023-05-15T20:47:06.736Z,100036.25
2023-05-15T20:49:33.991Z,100032.81
2023-05-15T20:52:01.520Z,100035.16
2023-05-15T20:54:29.315Z,100031.50
2023-05-15T20:56:56.477Z,100032.69
2023-05-15T20:59:23.545Z,100026.84
2023-05-15T21:01:51.187Z,100035.62
2023-05-15T21:04:18.498Z,100042.22
2023-05-15T21:06:45.788Z,100046.34
2023-05-15T21:09:14.236Z,100040.16
2023-05-15T21:11:41.370Z,100047.31
2023-05-15T21:14:08.640Z,100036.38
2023-05-15T21:16:36.398Z,100036.94
2023-05-15T21:19:03.755Z,100037.06
2023-05-15T21:21:31.721Z,100042.31
2023-05-15T21:24:01.219Z,100038.38
2023-05-15T21:26:28.429Z,100041.59
2023-05-15T21:28:57.279Z,100042.41
2023-05-15T21:31:25.619Z,100034.69
2023-05-15T21:33:53.250Z,100038.16
2023-05-15T21:36:20.869Z,100038.50
2023-05-15T21:38:48.378Z,100038.25
2023-05-15T21:41:15.596Z,100044.06
2023-05-15T21:43:42.739Z,100054.66
2023-05-15T21:46:10.229Z,100045.03
2023-05-15T21:48:37.388Z,100063.91
2023-05-15T21:51:04.582Z,100056.91
2023-05-15T21:53:32.209Z,100072.47
2023-05-15T21:56:00.326Z,100065.69
2023-05-15T21:58:27.783Z,100071.03
2023-05-15T22:00:55.406Z,100075.78
2023-05-15T22:03:23.073Z,100080.19
2023-05-15T22:05:52.729Z,100081.72
2023-05-15T22:08:21.047Z,100079.84
2023-05-15T22:10:48.996Z,100081.75
2023-05-15T22:13:16.173Z,100087.66
2023-05-15T22:15:43.314Z,100100.28
2023-05-15T22:18:11.218Z,100094.81
2023-05-15T22:20:39.095Z,100097.44
2023-05-15T22:23:06.511Z,100096.00
2023-05-15T22:25:33.885Z,100102.19
2023-05-15T22:28:00.973Z,100104.09
2023-05-15T22:30:28.474Z,100095.03
2023-05-15T22:32:56.003Z,100091.00
2023-05-15T22:35:23.138Z,100082.47
2023-05-15T22:37:50.318Z,100076.41
2023-05-15T22:40:17.841Z,100082.47
2023-05-15T22:42:44.956Z,100083.06
2023-05-15T22:45:12.106Z,100075.81
2023-05-15T22:47:40.012Z,100078.91
2023-05-15T22:50:08.845Z,100083.19
2023-05-15T22:52:35.977Z,100082.34
2023-05-15T22:55:15.540Z,100073.69
2023-05-15T22:57:43.730Z,100068.56
2023-05-15T23:00:12.043Z,100062.50
2023-05-15T23:02:41.149Z,100056.31
2023-05-15T23:05:09.827Z,100059.19
2023-05-15T23:08:09.036Z,100053.13
2023-05-15T23:10:56.118Z,100059.41
2023-05-15T23:13:23.732Z,100057.75
2023-05-15T23:15:51.153Z,100055.25
2023-05-15T23:18:18.425Z,100057.37
2023-05-15T23:20:45.938Z,100051.19
2023-05-15T23:23:13.135Z,100057.50
2023-05-15T23:25:40.278Z,100050.63
2023-05-15T23:28:07.729Z,100048.22
2023-05-15T23:30:34.896Z,100051.09
2023-05-15T23:33:02.098Z,100042.62
2023-05-15T23:35:29.508Z,100038.47
2023-05-15T23:37:56.589Z,100031.13
2023-05-15T23:40:23.900Z,100042.88
2023-05-15T23:42:51.373Z,100043.25
2023-05-15T23:45:18.580Z,100043.94
2023-05-15T23:47:46.613Z,100030.87
2023-05-15T23:50:14.107Z,100033.50
2023-05-15T23:52:41.380Z,100028.28
2023-05-15T23:55:08.718Z,100027.09
2023-05-15T23:57:36.176Z,100020.44
